createdAt,value
2023-05-06T00:00:20.839Z,0.00
2023-05-06T00:01:21.526Z,0.00
2023-05-06T00:02:20.749Z,0.00
2023-05-06T00:03:20.714Z,0.00
2023-05-06T00:04:20.634Z,0.00
2023-05-06T00:05:20.470Z,0.00
2023-05-06T00:06:20.510Z,0.00
2023-05-06T00:07:20.420Z,0.00
2023-05-06T00:08:20.331Z,0.00
2023-05-06T00:09:20.295Z,0.00
2023-05-06T00:10:20.159Z,0.00
2023-05-06T00:11:20.190Z,0.00
2023-05-06T00:12:20.043Z,0.00
2023-05-06T00:13:20.118Z,0.00
2023-05-06T00:14:19.952Z,0.00
2023-05-06T00:15:19.917Z,0.00
2023-05-06T00:16:20.494Z,0.00
2023-05-06T00:17:19.725Z,0.00
2023-05-06T00:18:19.680Z,0.00
2023-05-06T00:19:19.636Z,0.00
2023-05-06T00:20:19.578Z,0.00
2023-05-06T00:21:19.473Z,0.00
2023-05-06T00:22:19.473Z,0.00
2023-05-06T00:23:19.451Z,0.00
2023-05-06T00:24:19.287Z,0.00
2023-05-06T00:25:19.206Z,0.00
2023-05-06T00:26:19.635Z,0.00
2023-05-06T00:27:19.151Z,0.00
2023-05-06T00:28:19.030Z,0.00
2023-05-06T00:29:19.080Z,0.00
2023-05-06T00:30:18.916Z,0.00
2023-05-06T00:31:18.937Z,0.00
2023-05-06T00:32:18.804Z,0.00
2023-05-06T00:33:18.700Z,0.00
2023-05-06T00:34:18.629Z,0.00
2023-05-06T00:35:18.763Z,0.00
2023-05-06T00:36:18.547Z,0.00
2023-05-06T00:37:18.446Z,0.00
2023-05-06T00:38:18.428Z,0.00
2023-05-06T00:39:18.379Z,0.00
2023-05-06T00:40:18.282Z,0.00
2023-05-06T00:41:18.295Z,0.00
2023-05-06T00:42:18.224Z,0.00
2023-05-06T00:43:18.124Z,0.00
2023-05-06T00:44:18.128Z,0.00
2023-05-06T00:45:18.005Z,0.00
2023-05-06T00:46:18.593Z,0.00
2023-05-06T00:47:17.862Z,0.00
2023-05-06T00:48:17.917Z,0.00
2023-05-06T00:49:17.691Z,0.00
2023-05-06T00:50:17.691Z,0.00
2023-05-06T00:51:17.580Z,0.00
2023-05-06T00:52:17.520Z,0.00
2023-05-06T00:53:17.531Z,0.00
2023-05-06T00:54:17.382Z,0.00
2023-05-06T00:55:17.394Z,0.00
2023-05-06T00:56:18.334Z,0.00
2023-05-06T00:57:17.217Z,0.00
2023-05-06T00:58:17.155Z,0.00
2023-05-06T00:59:17.087Z,0.00
2023-05-06T01:00:17.104Z,0.00
2023-05-06T01:01:17.057Z,0.00
2023-05-06T01:02:16.968Z,0.00
2023-05-06T01:03:16.902Z,0.00
2023-05-06T01:04:16.751Z,0.00
2023-05-06T01:05:16.797Z,0.00
2023-05-06T01:06:16.638Z,0.00
2023-05-06T01:07:16.580Z,0.00
2023-05-06T01:08:16.593Z,0.00
2023-05-06T01:09:16.489Z,0.00
2023-05-06T01:10:16.494Z,0.00
2023-05-06T01:11:16.311Z,0.00
2023-05-06T01:12:16.992Z,0.00
2023-05-06T01:13:16.326Z,0.00
2023-05-06T01:14:16.196Z,0.00
2023-05-06T01:15:16.110Z,0.00
2023-05-06T01:16:16.048Z,0.00
2023-05-06T01:17:16.008Z,0.00
2023-05-06T01:18:15.869Z,0.00
2023-05-06T01:19:15.809Z,0.00
2023-05-06T01:20:16.674Z,0.00
2023-05-06T01:21:16.484Z,0.00
2023-05-06T01:22:15.669Z,0.00
2023-05-06T01:23:15.592Z,0.00
2023-05-06T01:24:15.539Z,0.00
2023-05-06T01:25:16.470Z,0.00
2023-05-06T01:26:15.380Z,0.00
2023-05-06T01:27:15.324Z,0.00
2023-05-06T01:28:15.297Z,0.00
2023-05-06T01:29:15.267Z,0.00
2023-05-06T01:30:15.155Z,0.00
2023-05-06T01:31:15.127Z,0.00
2023-05-06T01:32:15.076Z,0.00
2023-05-06T01:33:15.025Z,0.00
2023-05-06T01:34:14.928Z,0.00
2023-05-06T01:35:14.896Z,0.00
2023-05-06T01:36:14.792Z,0.00
2023-05-06T01:37:14.727Z,0.00
2023-05-06T01:38:14.642Z,0.00
2023-05-06T01:39:14.578Z,0.00
2023-05-06T01:40:14.545Z,0.00
2023-05-06T01:41:14.476Z,0.00
2023-05-06T01:42:14.388Z,0.00
2023-05-06T01:43:14.386Z,0.00
2023-05-06T01:44:14.318Z,0.00
2023-05-06T01:45:14.174Z,0.00
2023-05-06T01:46:14.162Z,0.00
2023-05-06T01:47:14.075Z,0.00
2023-05-06T01:48:14.009Z,0.00
2023-05-06T01:49:13.971Z,0.00
2023-05-06T01:50:14.065Z,0.00
2023-05-06T01:51:13.809Z,0.00
2023-05-06T01:52:13.782Z,0.00
2023-05-06T01:53:13.765Z,0.00
2023-05-06T01:54:13.629Z,0.00
2023-05-06T01:55:13.569Z,0.00
2023-05-06T01:56:13.557Z,0.00
2023-05-06T01:57:13.462Z,0.00
2023-05-06T01:58:13.370Z,0.00
2023-05-06T01:59:13.493Z,0.00
2023-05-06T02:00:13.291Z,0.00
2023-05-06T02:01:13.244Z,0.00
2023-05-06T02:02:13.180Z,0.00
2023-05-06T02:03:13.148Z,0.00
2023-05-06T02:04:13.002Z,0.00
2023-05-06T02:05:12.969Z,0.00
2023-05-06T02:06:12.885Z,0.00
2023-05-06T02:07:12.904Z,0.00
2023-05-06T02:08:12.776Z,0.00
2023-05-06T02:09:12.691Z,0.00
2023-05-06T02:10:12.638Z,0.00
2023-05-06T02:11:12.567Z,0.00
2023-05-06T02:12:12.474Z,0.00
2023-05-06T02:13:12.501Z,0.00
2023-05-06T02:14:12.443Z,0.00
2023-05-06T02:15:12.338Z,0.00
2023-05-06T02:16:13.689Z,0.00
2023-05-06T02:17:12.182Z,0.00
2023-05-06T02:18:12.046Z,1.00
2023-05-06T02:19:12.100Z,0.00
2023-05-06T02:20:12.028Z,0.00
2023-05-06T02:21:11.916Z,0.00
2023-05-06T02:22:11.865Z,0.00
2023-05-06T02:23:11.826Z,0.00
2023-05-06T02:24:11.778Z,0.00
2023-05-06T02:25:11.832Z,0.00
2023-05-06T02:26:12.461Z,0.00
2023-05-06T02:27:11.533Z,0.00
2023-05-06T02:28:11.545Z,0.00
2023-05-06T02:29:11.467Z,0.00
2023-05-06T02:30:11.361Z,0.00
2023-05-06T02:31:11.329Z,0.00
2023-05-06T02:32:11.270Z,0.00
2023-05-06T02:33:11.167Z,0.00
2023-05-06T02:34:11.130Z,0.00
2023-05-06T02:35:11.220Z,0.00
2023-05-06T02:36:11.048Z,0.00
2023-05-06T02:37:10.926Z,0.00
2023-05-06T02:38:10.838Z,0.00
2023-05-06T02:39:10.794Z,0.00
2023-05-06T02:40:10.762Z,0.00
2023-05-06T02:41:10.672Z,0.00
2023-05-06T02:42:10.627Z,0.00
2023-05-06T02:43:10.578Z,0.00
2023-05-06T02:44:10.452Z,0.00
2023-05-06T02:45:10.749Z,0.00
2023-05-06T02:46:10.430Z,0.00
2023-05-06T02:47:10.292Z,0.00
2023-05-06T02:48:10.226Z,0.00
2023-05-06T02:49:10.207Z,0.00
2023-05-06T02:50:10.105Z,0.00
2023-05-06T02:51:10.952Z,0.00
2023-05-06T02:52:09.995Z,0.00
2023-05-06T02:53:09.895Z,0.00
2023-05-06T02:54:09.853Z,0.00
2023-05-06T02:55:09.998Z,0.00
2023-05-06T02:56:09.791Z,0.00
2023-05-06T02:57:09.661Z,0.00
2023-05-06T02:58:09.593Z,0.00
2023-05-06T02:59:09.672Z,0.00
2023-05-06T03:00:09.498Z,0.00
2023-05-06T03:01:09.443Z,0.00
2023-05-06T03:02:09.437Z,0.00
2023-05-06T03:03:09.350Z,0.00
2023-05-06T03:04:09.228Z,0.00
2023-05-06T03:05:09.342Z,0.00
2023-05-06T03:06:09.103Z,0.00
2023-05-06T03:07:09.032Z,0.00
2023-05-06T03:08:09.002Z,0.00
2023-05-06T03:09:08.874Z,0.00
2023-05-06T03:10:08.875Z,0.00
2023-05-06T03:11:08.806Z,0.00
2023-05-06T03:12:08.756Z,0.00
2023-05-06T03:13:08.714Z,0.00
2023-05-06T03:14:08.634Z,0.00
2023-05-06T03:15:08.859Z,0.00
2023-05-06T03:16:08.539Z,0.00
2023-05-06T03:17:08.439Z,0.00
2023-05-06T03:18:08.456Z,0.00
2023-05-06T03:19:08.302Z,0.00
2023-05-06T03:20:08.237Z,0.00
2023-05-06T03:21:08.150Z,1.00
2023-05-06T03:22:08.006Z,1.00
2023-05-06T03:23:08.967Z,1.00
2023-05-06T03:24:08.627Z,1.00
2023-05-06T03:25:08.234Z,2.00
2023-05-06T03:26:07.812Z,2.00
2023-05-06T03:27:07.765Z,2.00
2023-05-06T03:28:07.678Z,2.00
2023-05-06T03:29:07.584Z,3.00
2023-05-06T03:30:07.546Z,3.00
2023-05-06T03:31:07.469Z,4.00
2023-05-06T03:32:07.417Z,4.00
2023-05-06T03:33:07.419Z,8.00
2023-05-06T03:34:07.288Z,7.00
2023-05-06T03:35:07.364Z,6.00
2023-05-06T03:36:07.128Z,7.00
2023-05-06T03:37:07.127Z,11.00
2023-05-06T03:38:07.031Z,9.00
2023-05-06T03:39:06.954Z,9.00
2023-05-06T03:40:07.042Z,15.00
2023-05-06T03:41:06.886Z,17.00
2023-05-06T03:42:09.215Z,16.00
2023-05-06T03:43:06.747Z,15.00
2023-05-06T03:44:06.685Z,19.00
2023-05-06T03:45:06.595Z,24.00
2023-05-06T03:46:06.579Z,25.00
2023-05-06T03:47:06.464Z,26.00
2023-05-06T03:48:06.527Z,27.00
2023-05-06T03:49:06.375Z,28.00
2023-05-06T03:50:06.316Z,29.00
2023-05-06T03:51:06.202Z,29.00
2023-05-06T03:52:06.196Z,34.00
2023-05-06T03:53:06.123Z,29.00
2023-05-06T03:54:06.007Z,33.00
2023-05-06T03:55:05.977Z,36.00
2023-05-06T03:56:05.875Z,38.00
2023-05-06T03:57:05.853Z,41.00
2023-05-06T03:58:05.784Z,45.00
2023-05-06T03:59:07.470Z,50.00
2023-05-06T04:00:05.673Z,51.00
2023-05-06T04:01:05.544Z,51.00
2023-05-06T04:02:05.556Z,55.00
2023-05-06T04:03:05.555Z,60.00
2023-05-06T04:04:05.471Z,62.00
2023-05-06T04:05:05.331Z,65.00
2023-05-06T04:06:05.329Z,62.00
2023-05-06T04:07:05.208Z,62.00
2023-05-06T04:08:05.160Z,67.00
2023-05-06T04:09:05.071Z,76.00
2023-05-06T04:10:05.000Z,79.00
2023-05-06T04:11:04.964Z,88.00
2023-05-06T04:12:04.874Z,94.00
2023-05-06T04:13:04.922Z,108.00
2023-05-06T04:14:04.779Z,125.00
2023-05-06T04:15:04.711Z,134.00
2023-05-06T04:16:04.909Z,145.00
2023-05-06T04:17:04.583Z,155.00
2023-05-06T04:18:04.611Z,166.00
2023-05-06T04:19:06.341Z,177.00
2023-05-06T04:20:04.392Z,183.00
2023-05-06T04:21:04.341Z,194.00
2023-05-06T04:22:04.261Z,204.00
2023-05-06T04:23:04.170Z,207.00
2023-05-06T04:24:04.201Z,207.00
2023-05-06T04:25:04.964Z,212.00
2023-05-06T04:26:04.014Z,228.00
2023-05-06T04:27:04.495Z,245.00
2023-05-06T04:28:03.912Z,244.00
2023-05-06T04:29:03.967Z,289.00
2023-05-06T04:30:03.760Z,342.00
2023-05-06T04:31:03.660Z,358.00
2023-05-06T04:32:03.728Z,398.00
2023-05-06T04:33:03.660Z,444.00
2023-05-06T04:34:03.506Z,423.00
2023-05-06T04:35:03.452Z,379.00
2023-05-06T04:36:03.378Z,393.00
2023-05-06T04:37:03.952Z,401.00
2023-05-06T04:38:03.263Z,381.00
2023-05-06T04:39:03.204Z,470.00
2023-05-06T04:40:03.113Z,631.00
2023-05-06T04:41:03.663Z,610.00
2023-05-06T04:42:03.044Z,549.00
2023-05-06T04:43:02.990Z,504.00
2023-05-06T04:44:02.886Z,542.00
2023-05-06T04:45:02.769Z,528.00
2023-05-06T04:46:02.862Z,510.00
2023-05-06T04:47:02.699Z,544.00
2023-05-06T04:48:02.665Z,523.00
2023-05-06T04:49:02.585Z,631.00
2023-05-06T04:50:02.479Z,696.00
2023-05-06T04:51:02.451Z,736.00
2023-05-06T04:52:02.357Z,776.00
2023-05-06T04:53:02.314Z,869.00
2023-05-06T04:54:02.287Z,944.00
2023-05-06T04:55:02.180Z,941.00
2023-05-06T04:56:02.165Z,892.00
2023-05-06T04:57:02.047Z,926.00
2023-05-06T04:58:01.980Z,883.00
2023-05-06T04:59:01.968Z,814.00
2023-05-06T05:00:01.845Z,843.00
2023-05-06T05:01:01.827Z,854.00
2023-05-06T05:02:01.783Z,853.00
2023-05-06T05:03:01.836Z,854.00
2023-05-06T05:04:01.629Z,832.00
2023-05-06T05:05:01.602Z,796.00
2023-05-06T05:06:01.450Z,830.00
2023-05-06T05:07:02.179Z,864.00
2023-05-06T05:08:01.346Z,886.00
2023-05-06T05:09:01.400Z,900.00
2023-05-06T05:10:01.192Z,1014.00
2023-05-06T05:11:01.163Z,1140.00
2023-05-06T05:12:01.141Z,1144.00
2023-05-06T05:13:01.106Z,1119.00
2023-05-06T05:14:02.265Z,1051.00
2023-05-06T05:15:00.979Z,967.00
2023-05-06T05:16:01.062Z,805.00
2023-05-06T05:17:00.793Z,1554.00
2023-05-06T05:18:00.801Z,1391.00
2023-05-06T05:19:03.022Z,1702.00
2023-05-06T05:20:00.572Z,1162.00
2023-05-06T05:21:00.556Z,1124.00
2023-05-06T05:22:00.489Z,1970.00
2023-05-06T05:23:00.481Z,1892.00
2023-05-06T05:24:00.478Z,1581.00
2023-05-06T05:25:00.279Z,1172.00
2023-05-06T05:26:00.279Z,1227.00
2023-05-06T05:27:00.242Z,1596.00
2023-05-06T05:28:00.180Z,1675.00
2023-05-06T05:29:00.055Z,1619.00
2023-05-06T05:29:59.969Z,1782.00
2023-05-06T05:30:59.916Z,1421.00
2023-05-06T05:31:59.838Z,1669.00
2023-05-06T05:32:59.842Z,3930.00
2023-05-06T05:33:59.804Z,2044.00
2023-05-06T05:34:59.648Z,1841.00
2023-05-06T05:35:59.587Z,2602.00
2023-05-06T05:36:59.580Z,1656.00
2023-05-06T05:37:59.499Z,1932.00
2023-05-06T05:38:59.426Z,2429.00
2023-05-06T05:39:59.381Z,2314.00
2023-05-06T05:40:59.300Z,895.00
2023-05-06T05:41:59.271Z,4795.00
2023-05-06T05:42:59.116Z,2731.00
2023-05-06T05:43:59.050Z,1147.00
2023-05-06T05:44:59.100Z,5716.00
2023-05-06T05:45:59.012Z,4834.00
2023-05-06T05:46:58.894Z,2520.00
2023-05-06T05:47:58.818Z,1426.00
2023-05-06T05:48:58.811Z,1154.00
2023-05-06T05:49:58.709Z,4107.00
2023-05-06T05:50:58.610Z,1976.00
2023-05-06T05:51:58.580Z,1483.00
2023-05-06T05:52:58.558Z,792.00
2023-05-06T05:53:58.540Z,1038.00
2023-05-06T05:54:58.450Z,5941.00
2023-05-06T05:55:58.968Z,2335.00
2023-05-06T05:56:58.255Z,1847.00
2023-05-06T05:57:58.196Z,1580.00
2023-05-06T05:58:58.198Z,1426.00
2023-05-06T05:59:58.187Z,1248.00
2023-05-06T06:00:58.014Z,742.00
2023-05-06T06:01:57.940Z,5506.00
2023-05-06T06:02:57.886Z,6497.00
2023-05-06T06:03:57.986Z,1129.00
2023-05-06T06:04:59.194Z,5512.00
2023-05-06T06:05:57.675Z,6029.00
2023-05-06T06:06:57.662Z,5721.00
2023-05-06T06:07:57.601Z,5432.00
2023-05-06T06:08:58.111Z,5205.00
2023-05-06T06:09:58.933Z,5331.00
2023-05-06T06:10:57.445Z,5334.00
2023-05-06T06:11:57.316Z,5543.00
2023-05-06T06:12:57.300Z,5499.00
2023-05-06T06:13:57.195Z,5419.00
2023-05-06T06:14:57.137Z,5198.00
2023-05-06T06:15:57.122Z,5450.00
2023-05-06T06:16:57.015Z,5705.00
2023-05-06T06:17:57.215Z,5688.00
2023-05-06T06:18:56.915Z,5205.00
2023-05-06T06:19:56.851Z,5696.00
2023-05-06T06:20:56.767Z,7456.00
2023-05-06T06:21:56.709Z,8241.00
2023-05-06T06:22:56.667Z,8805.00
2023-05-06T06:23:56.682Z,10241.00
2023-05-06T06:24:56.587Z,8073.00
2023-05-06T06:25:57.929Z,7230.00
2023-05-06T06:26:56.422Z,10816.00
2023-05-06T06:27:56.383Z,12990.00
2023-05-06T06:28:56.995Z,11065.00
2023-05-06T06:29:56.958Z,10949.00
2023-05-06T06:30:56.165Z,14221.00
2023-05-06T06:31:56.100Z,12130.00
2023-05-06T06:32:56.080Z,8623.00
2023-05-06T06:33:55.944Z,10152.00
2023-05-06T06:34:55.896Z,15626.00
2023-05-06T06:35:55.852Z,16769.00
2023-05-06T06:36:55.765Z,12754.00
2023-05-06T06:37:55.746Z,13628.00
2023-05-06T06:38:55.741Z,17057.00
2023-05-06T06:39:55.604Z,14202.00
2023-05-06T06:40:55.585Z,10808.00
2023-05-06T06:41:55.462Z,8021.00
2023-05-06T06:42:55.426Z,7317.00
2023-05-06T06:43:55.365Z,7389.00
2023-05-06T06:44:55.311Z,6355.00
2023-05-06T06:45:55.390Z,7461.00
2023-05-06T06:46:55.155Z,2989.00
2023-05-06T06:47:55.143Z,6290.00
2023-05-06T06:48:55.018Z,2569.00
2023-05-06T06:49:55.017Z,4748.00
2023-05-06T06:50:54.884Z,1107.00
2023-05-06T06:51:54.945Z,6916.00
2023-05-06T06:52:54.809Z,7552.00
2023-05-06T06:53:54.724Z,6403.00
2023-05-06T06:54:55.968Z,6881.00
2023-05-06T06:55:54.637Z,6938.00
2023-05-06T06:56:55.930Z,6845.00
2023-05-06T06:57:54.452Z,6862.00
2023-05-06T06:58:54.404Z,7006.00
2023-05-06T06:59:54.349Z,6937.00
2023-05-06T07:00:54.419Z,6944.00
2023-05-06T07:01:54.226Z,7067.00
2023-05-06T07:02:54.336Z,7038.00
2023-05-06T07:03:54.107Z,7119.00
2023-05-06T07:04:54.129Z,7139.00
2023-05-06T07:05:53.970Z,7239.00
2023-05-06T07:06:53.896Z,7389.00
2023-05-06T07:07:53.864Z,7610.00
2023-05-06T07:08:53.825Z,7889.00
2023-05-06T07:09:53.802Z,8277.00
2023-05-06T07:10:53.682Z,5889.00
2023-05-06T07:11:53.610Z,13176.00
2023-05-06T07:12:53.618Z,22347.00
2023-05-06T07:13:53.639Z,23037.00
2023-05-06T07:14:53.451Z,28988.00
2023-05-06T07:15:53.393Z,28186.00
2023-05-06T07:16:53.980Z,27761.00
2023-05-06T07:17:53.289Z,4758.00
2023-05-06T07:18:53.206Z,27894.00
2023-05-06T07:19:53.267Z,24708.00
2023-05-06T07:20:53.107Z,27808.00
2023-05-06T07:21:53.015Z,34230.00
2023-05-06T07:22:52.941Z,32655.00
2023-05-06T07:23:52.916Z,31358.00
2023-05-06T07:24:52.853Z,27132.00
2023-05-06T07:25:53.438Z,24204.00
2023-05-06T07:26:52.775Z,27003.00
2023-05-06T07:27:52.616Z,30419.00
2023-05-06T07:28:52.623Z,33909.00
2023-05-06T07:29:52.585Z,33909.00
2023-05-06T07:30:52.563Z,25866.00
2023-05-06T07:31:52.416Z,16193.00
2023-05-06T07:32:52.392Z,12324.00
2023-05-06T07:33:52.281Z,9595.00
2023-05-06T07:34:52.204Z,8557.00
2023-05-06T07:35:52.194Z,7980.00
2023-05-06T07:36:52.103Z,8434.00
2023-05-06T07:37:52.093Z,6224.00
2023-05-06T07:38:52.024Z,7523.00
2023-05-06T07:39:51.911Z,7383.00
2023-05-06T07:40:52.461Z,7351.00
2023-05-06T07:41:51.812Z,7156.00
2023-05-06T07:42:51.756Z,7140.00
2023-05-06T07:43:51.642Z,7271.00
2023-05-06T07:44:51.579Z,7165.00
2023-05-06T07:45:52.438Z,7209.00
2023-05-06T07:46:51.553Z,7284.00
2023-05-06T07:47:51.600Z,7455.00
2023-05-06T07:48:51.386Z,6950.00
2023-05-06T07:49:52.206Z,6592.00
2023-05-06T07:50:51.272Z,7000.00
2023-05-06T07:51:51.218Z,5956.00
2023-05-06T07:52:51.187Z,5834.00
2023-05-06T07:53:51.085Z,7056.00
2023-05-06T07:54:50.995Z,6331.00
2023-05-06T07:55:50.962Z,5952.00
2023-05-06T07:56:50.879Z,3185.00
2023-05-06T07:57:50.811Z,1704.00
2023-05-06T07:58:50.799Z,3654.00
2023-05-06T07:59:50.725Z,2712.00
2023-05-06T08:00:50.626Z,1641.00
2023-05-06T08:01:51.620Z,5961.00
2023-05-06T08:02:50.591Z,6485.00
2023-05-06T08:03:50.664Z,6520.00
2023-05-06T08:04:51.746Z,7079.00
2023-05-06T08:05:50.343Z,6253.00
2023-05-06T08:06:50.294Z,7313.00
2023-05-06T08:07:50.202Z,3313.00
2023-05-06T08:08:50.185Z,3555.00
2023-05-06T08:09:50.081Z,6059.00
2023-05-06T08:10:50.059Z,4150.00
2023-05-06T08:11:50.041Z,3480.00
2023-05-06T08:12:49.923Z,4200.00
2023-05-06T08:13:49.873Z,3806.00
2023-05-06T08:14:49.789Z,4042.00
2023-05-06T08:15:49.750Z,1255.00
2023-05-06T08:16:49.904Z,5944.00
2023-05-06T08:17:49.714Z,8379.00
2023-05-06T08:18:49.575Z,8690.00
2023-05-06T08:19:49.483Z,9157.00
2023-05-06T08:20:49.496Z,7743.00
2023-05-06T08:21:49.971Z,1584.00
2023-05-06T08:22:49.460Z,9174.00
2023-05-06T08:23:49.241Z,4584.00
2023-05-06T08:24:49.184Z,7825.00
2023-05-06T08:25:49.673Z,7969.00
2023-05-06T08:26:49.660Z,5315.00
2023-05-06T08:27:48.991Z,2380.00
2023-05-06T08:28:48.996Z,7416.00
2023-05-06T08:29:48.904Z,2475.00
2023-05-06T08:30:48.862Z,5213.00
2023-05-06T08:31:48.975Z,22687.00
2023-05-06T08:32:48.709Z,29999.00
2023-05-06T08:33:48.639Z,22417.00
2023-05-06T08:34:48.611Z,13041.00
2023-05-06T08:35:48.537Z,4445.00
2023-05-06T08:36:48.493Z,1295.00
2023-05-06T08:37:48.427Z,8600.00
2023-05-06T08:38:48.333Z,9006.00
2023-05-06T08:39:48.347Z,3829.00
2023-05-06T08:40:48.222Z,3517.00
2023-05-06T08:41:48.185Z,3378.00
2023-05-06T08:42:48.072Z,3185.00
2023-05-06T08:43:48.069Z,2939.00
2023-05-06T08:44:47.969Z,8824.00
2023-05-06T08:45:47.941Z,3171.00
2023-05-06T08:46:47.874Z,7962.00
2023-05-06T08:47:47.932Z,8384.00
2023-05-06T08:48:47.727Z,8683.00
2023-05-06T08:49:47.664Z,8197.00
2023-05-06T08:50:48.970Z,8719.00
2023-05-06T08:51:47.625Z,8526.00
2023-05-06T08:52:47.484Z,5750.00
2023-05-06T08:53:47.396Z,4651.00
2023-05-06T08:54:47.496Z,4485.00
2023-05-06T08:55:47.309Z,4251.00
2023-05-06T08:56:47.240Z,3845.00
2023-05-06T08:57:47.215Z,3216.00
2023-05-06T08:58:47.945Z,3405.00
2023-05-06T08:59:47.140Z,3481.00
2023-05-06T09:00:47.087Z,3776.00
2023-05-06T09:01:48.127Z,3275.00
2023-05-06T09:02:46.924Z,3251.00
2023-05-06T09:03:46.864Z,3050.00
2023-05-06T09:04:47.460Z,3120.00
2023-05-06T09:05:46.787Z,3629.00
2023-05-06T09:06:46.640Z,3210.00
2023-05-06T09:07:46.605Z,3316.00
2023-05-06T09:08:46.506Z,2825.00
2023-05-06T09:09:46.518Z,1484.00
2023-05-06T09:10:46.420Z,9395.00
2023-05-06T09:11:46.371Z,6706.00
2023-05-06T09:12:46.291Z,2663.00
2023-05-06T09:13:46.184Z,4824.00
2023-05-06T09:14:46.151Z,3802.00
2023-05-06T09:15:46.133Z,1915.00
2023-05-06T09:16:46.233Z,6201.00
2023-05-06T09:17:46.032Z,6021.00
2023-05-06T09:18:45.973Z,4574.00
2023-05-06T09:19:45.854Z,4419.00
2023-05-06T09:20:45.847Z,3650.00
2023-05-06T09:21:45.770Z,2847.00
2023-05-06T09:22:45.730Z,2616.00
2023-05-06T09:23:45.762Z,2241.00
2023-05-06T09:24:45.578Z,2862.00
2023-05-06T09:25:45.520Z,2218.00
2023-05-06T09:26:45.502Z,2413.00
2023-05-06T09:27:45.390Z,2454.00
2023-05-06T09:28:45.328Z,2290.00
2023-05-06T09:29:45.262Z,2174.00
2023-05-06T09:30:45.271Z,2094.00
2023-05-06T09:31:45.115Z,1961.00
2023-05-06T09:32:45.073Z,1986.00
2023-05-06T09:33:45.043Z,22905.00
2023-05-06T09:34:44.993Z,7772.00
2023-05-06T09:35:44.874Z,76618.00
2023-05-06T09:36:44.820Z,76429.00
2023-05-06T09:37:44.746Z,79712.00
2023-05-06T09:38:44.737Z,56069.00
2023-05-06T09:39:44.685Z,75742.00
2023-05-06T09:40:44.660Z,75936.00
2023-05-06T09:41:44.599Z,79251.00
2023-05-06T09:42:44.483Z,77799.00
2023-05-06T09:43:44.469Z,78279.00
2023-05-06T09:44:44.320Z,78660.00
2023-05-06T09:45:44.289Z,78550.00
2023-05-06T09:46:44.227Z,78637.00
2023-05-06T09:47:44.276Z,79701.00
2023-05-06T09:48:44.086Z,78429.00
2023-05-06T09:49:44.054Z,71956.00
2023-05-06T09:50:44.681Z,29969.00
2023-05-06T09:51:44.513Z,13530.00
2023-05-06T09:52:43.840Z,10488.00
2023-05-06T09:53:43.809Z,8939.00
2023-05-06T09:54:43.747Z,8517.00
2023-05-06T09:55:43.692Z,7759.00
2023-05-06T09:56:43.638Z,7812.00
2023-05-06T09:57:43.698Z,7286.00
2023-05-06T09:58:43.518Z,6581.00
2023-05-06T09:59:43.448Z,7864.00
2023-05-06T10:00:43.379Z,7458.00
2023-05-06T10:01:43.359Z,6708.00
2023-05-06T10:02:43.406Z,6688.00
2023-05-06T10:03:44.072Z,6901.00
2023-05-06T10:04:43.311Z,5371.00
2023-05-06T10:05:43.060Z,2067.00
2023-05-06T10:06:43.038Z,7002.00
2023-05-06T10:07:42.929Z,6389.00
2023-05-06T10:08:42.881Z,3745.00
2023-05-06T10:09:42.872Z,20671.00
2023-05-06T10:10:42.756Z,1217.00
2023-05-06T10:11:42.684Z,5666.00
2023-05-06T10:12:42.684Z,3614.00
2023-05-06T10:13:42.619Z,2852.00
2023-05-06T10:14:42.490Z,2661.00
2023-05-06T10:15:42.497Z,2171.00
2023-05-06T10:16:42.540Z,18472.00
2023-05-06T10:17:42.381Z,18300.00
2023-05-06T10:18:42.290Z,6215.00
2023-05-06T10:19:42.254Z,8480.00
2023-05-06T10:20:42.291Z,4138.00
2023-05-06T10:21:42.127Z,2572.00
2023-05-06T10:22:42.054Z,2185.00
2023-05-06T10:23:42.006Z,1698.00
2023-05-06T10:24:41.895Z,1968.00
2023-05-06T10:25:41.884Z,2166.00
2023-05-06T10:26:41.838Z,2099.00
2023-05-06T10:27:41.763Z,2321.00
2023-05-06T10:28:41.674Z,2400.00
2023-05-06T10:29:41.612Z,2186.00
2023-05-06T10:30:41.578Z,2225.00
2023-05-06T10:31:42.487Z,2440.00
2023-05-06T10:32:42.005Z,2427.00
2023-05-06T10:33:42.443Z,4149.00
2023-05-06T10:34:41.340Z,2816.00
2023-05-06T10:35:41.285Z,2521.00
2023-05-06T10:36:41.242Z,2459.00
2023-05-06T10:37:41.152Z,2245.00
2023-05-06T10:38:41.081Z,3574.00
2023-05-06T10:39:42.128Z,1141.00
2023-05-06T10:40:40.958Z,6237.00
2023-05-06T10:41:40.873Z,3623.00
2023-05-06T10:42:40.889Z,4305.00
2023-05-06T10:43:40.814Z,3024.00
2023-05-06T10:44:40.701Z,2737.00
2023-05-06T10:45:40.683Z,1246.00
2023-05-06T10:46:40.602Z,4860.00
2023-05-06T10:47:40.563Z,3200.00
2023-05-06T10:48:40.484Z,4491.00
2023-05-06T10:49:40.389Z,1895.00
2023-05-06T10:50:40.337Z,3217.00
2023-05-06T10:51:40.241Z,2835.00
2023-05-06T10:52:40.213Z,3214.00
2023-05-06T10:53:41.669Z,15951.00
2023-05-06T10:54:40.065Z,4037.00
2023-05-06T10:55:40.102Z,5737.00
2023-05-06T10:56:40.014Z,6082.00
2023-05-06T10:57:39.917Z,3709.00
2023-05-06T10:58:39.847Z,4713.00
2023-05-06T10:59:39.783Z,5134.00
2023-05-06T11:00:39.744Z,3470.00
2023-05-06T11:01:39.780Z,25183.00
2023-05-06T11:02:39.733Z,8361.00
2023-05-06T11:03:39.628Z,78145.00
2023-05-06T11:04:39.474Z,66738.00
2023-05-06T11:05:39.480Z,22318.00
2023-05-06T11:06:39.391Z,7889.00
2023-05-06T11:07:39.366Z,6274.00
2023-05-06T11:08:39.272Z,5466.00
2023-05-06T11:09:39.242Z,4850.00
2023-05-06T11:10:39.087Z,4790.00
2023-05-06T11:11:39.094Z,4790.00
2023-05-06T11:12:39.017Z,4425.00
2023-05-06T11:13:38.917Z,5286.00
2023-05-06T11:14:38.869Z,4482.00
2023-05-06T11:15:38.812Z,2437.00
2023-05-06T11:16:38.956Z,4486.00
2023-05-06T11:17:38.757Z,4446.00
2023-05-06T11:18:38.705Z,4271.00
2023-05-06T11:19:38.597Z,4190.00
2023-05-06T11:20:38.560Z,4179.00
2023-05-06T11:21:38.466Z,3682.00
2023-05-06T11:22:38.415Z,2817.00
2023-05-06T11:23:38.352Z,2664.00
2023-05-06T11:24:38.400Z,2264.00
2023-05-06T11:25:38.203Z,1862.00
2023-05-06T11:26:38.181Z,2136.00
2023-05-06T11:27:38.119Z,2894.00
2023-05-06T11:28:37.995Z,2364.00
2023-05-06T11:29:38.056Z,2201.00
2023-05-06T11:30:37.938Z,2031.00
2023-05-06T11:31:37.902Z,2028.00
2023-05-06T11:32:37.829Z,2026.00
2023-05-06T11:33:37.739Z,2054.00
2023-05-06T11:34:37.686Z,2001.00
2023-05-06T11:35:37.591Z,1950.00
2023-05-06T11:36:37.530Z,1976.00
2023-05-06T11:37:37.506Z,2380.00
2023-05-06T11:38:37.444Z,2467.00
2023-05-06T11:39:40.788Z,2842.00
2023-05-06T11:40:37.308Z,2966.00
2023-05-06T11:41:37.261Z,2997.00
2023-05-06T11:42:37.221Z,3098.00
2023-05-06T11:43:37.187Z,2410.00
2023-05-06T11:44:37.083Z,2474.00
2023-05-06T11:45:37.051Z,2894.00
2023-05-06T11:46:36.917Z,2324.00
2023-05-06T11:47:36.899Z,2067.00
2023-05-06T11:48:36.829Z,1889.00
2023-05-06T11:49:36.977Z,1827.00
2023-05-06T11:50:36.779Z,1836.00
2023-05-06T11:51:36.614Z,1744.00
2023-05-06T11:52:36.642Z,1984.00
2023-05-06T11:53:36.574Z,2357.00
2023-05-06T11:54:36.513Z,2253.00
2023-05-06T11:55:36.503Z,2060.00
2023-05-06T11:56:36.338Z,1868.00
2023-05-06T11:57:36.240Z,1706.00
2023-05-06T11:58:36.188Z,1517.00
2023-05-06T11:59:36.178Z,1641.00
2023-05-06T12:00:37.200Z,1746.00
2023-05-06T12:01:36.989Z,1650.00
2023-05-06T12:02:36.076Z,1652.00
2023-05-06T12:03:36.111Z,1543.00
2023-05-06T12:04:35.947Z,1671.00
2023-05-06T12:05:35.787Z,1641.00
2023-05-06T12:06:37.038Z,1855.00
2023-05-06T12:07:35.713Z,1884.00
2023-05-06T12:08:35.689Z,1788.00
2023-05-06T12:09:37.105Z,1812.00
2023-05-06T12:10:35.501Z,1839.00
2023-05-06T12:11:35.387Z,2112.00
2023-05-06T12:12:35.379Z,1927.00
2023-05-06T12:13:35.397Z,1890.00
2023-05-06T12:14:37.647Z,1830.00
2023-05-06T12:15:35.190Z,1518.00
2023-05-06T12:16:35.090Z,885.00
2023-05-06T12:17:35.133Z,7291.00
2023-05-06T12:18:35.024Z,3292.00
2023-05-06T12:19:34.999Z,21412.00
2023-05-06T12:20:34.876Z,16375.00
2023-05-06T12:21:34.817Z,10429.00
2023-05-06T12:22:34.712Z,7219.00
2023-05-06T12:23:34.724Z,5332.00
2023-05-06T12:24:34.647Z,3614.00
2023-05-06T12:25:34.598Z,1371.00
2023-05-06T12:26:34.446Z,9234.00